Time;durP1;ratioP1;P1;durP2;ratioP2;P2;SDS_P1;SDS_P2;PMS_P1;PMS_P2;Temp;Humidity;BMP_temperature;BMP_pressure;BME280_temperature;BME280_humidity;BME280_pressure;Samples;Min_cycle;Max_cycle;Signal;HPM_P1;HPM_P2
2023/08/14 00:00:51;;;;;;;4.13;3.63;;;15.20;99.90;;;;;;5153860;27;20034;-62
2023/08/14 00:03:18;;;;;;;6.53;4.00;;;15.10;99.90;;;;;;5126726;27;20126;-62
2023/08/14 00:05:43;;;;;;;3.60;3.30;;;15.10;99.90;;;;;;5119985;27;20035;-62
2023/08/14 00:08:09;;;;;;;7.30;3.55;;;15.10;99.90;;;;;;5149506;27;20529;-62
2023/08/14 00:10:35;;;;;;;4.13;3.45;;;15.10;99.90;;;;;;5132729;27;20031;-63
2023/08/14 00:13:00;;;;;;;5.55;3.67;;;15.10;99.90;;;;;;5133112;27;20047;-61
2023/08/14 00:15:26;;;;;;;5.03;3.75;;;15.10;99.90;;;;;;5125278;27;20043;-61
2023/08/14 00:17:51;;;;;;;6.55;4.25;;;15.10;99.90;;;;;;5122116;27;20042;-62
2023/08/14 00:20:17;;;;;;;6.70;3.83;;;15.10;99.90;;;;;;5134868;27;20400;-62
2023/08/14 00:22:43;;;;;;;4.20;3.80;;;15.10;99.90;;;;;;5116726;27;20059;-62
2023/08/14 00:25:09;;;;;;;5.97;4.00;;;15.10;99.90;;;;;;5144907;27;20524;-62
2023/08/14 00:27:35;;;;;;;4.25;3.60;;;15.00;99.90;;;;;;5120771;27;20038;-62
2023/08/14 00:30:01;;;;;;;4.45;3.55;;;15.00;99.90;;;;;;5117072;27;20069;-62
2023/08/14 00:32:27;;;;;;;4.90;3.42;;;15.00;99.90;;;;;;5132449;27;20038;-63
2023/08/14 00:34:53;;;;;;;7.38;3.90;;;15.00;99.90;;;;;;5117135;27;20437;-62
2023/08/14 00:37:20;;;;;;;4.97;3.75;;;15.00;99.90;;;;;;5132576;27;20055;-62
2023/08/14 00:39:46;;;;;;;4.93;4.30;;;15.00;99.90;;;;;;5114231;27;20439;-63
2023/08/14 00:42:12;;;;;;;4.55;3.78;;;15.00;99.90;;;;;;5140848;27;20047;-62
2023/08/14 00:44:37;;;;;;;6.50;4.30;;;15.00;99.90;;;;;;5134183;27;20038;-62
2023/08/14 00:47:03;;;;;;;6.47;4.63;;;15.00;99.90;;;;;;5141904;27;20397;-62
2023/08/14 00:49:29;;;;;;;7.78;4.35;;;15.00;99.90;;;;;;5148444;27;20081;-63
2023/08/14 00:51:55;;;;;;;7.07;4.40;;;15.00;99.90;;;;;;5134006;27;20080;-62
2023/08/14 00:54:20;;;;;;;6.15;4.30;;;14.90;99.90;;;;;;5134125;27;20066;-62
2023/08/14 00:56:46;;;;;;;5.18;4.45;;;14.90;99.90;;;;;;5147992;27;20080;-62
2023/08/14 00:59:12;;;;;;;6.13;5.10;;;14.90;99.90;;;;;;5132098;27;20382;-62
2023/08/14 01:01:38;;;;;;;6.07;4.28;;;14.90;99.90;;;;;;5132895;27;20535;-62
2023/08/14 01:04:05;;;;;;;5.57;4.78;;;14.90;99.90;;;;;;5131646;27;20031;-62
2023/08/14 01:06:30;;;;;;;4.40;4.00;;;15.00;99.90;;;;;;5129230;27;20114;-62
2023/08/14 01:08:56;;;;;;;5.53;4.60;;;14.90;99.90;;;;;;5141074;27;20114;-63
2023/08/14 01:11:50;;;;;;;7.15;4.70;;;14.90;99.90;;;;;;5116064;27;20490;-63
2023/08/14 01:14:42;;;;;;;9.25;4.35;;;14.90;99.90;;;;;;5131568;27;20054;-62
2023/08/14 01:17:13;;;;;;;7.30;4.50;;;14.90;99.90;;;;;;5137323;27;20042;-62
2023/08/14 01:19:41;;;;;;;6.95;4.55;;;14.80;99.90;;;;;;5133947;27;20034;-62
2023/08/14 01:22:19;;;;;;;4.28;3.88;;;14.80;99.90;;;;;;5106654;27;20050;-61
2023/08/14 01:25:18;;;;;;;5.82;4.20;;;14.80;99.90;;;;;;5128422;27;20042;-62
2023/08/14 01:27:44;;;;;;;5.00;4.25;;;14.80;99.90;;;;;;5126111;27;20383;-62
2023/08/14 01:30:10;;;;;;;6.18;4.80;;;14.70;99.90;;;;;;5131266;27;20096;-63
2023/08/14 01:32:36;;;;;;;7.07;4.70;;;14.80;99.90;;;;;;5113767;27;20047;-63
2023/08/14 01:35:02;;;;;;;5.20;4.38;;;14.70;99.90;;;;;;5114087;27;20133;-62
2023/08/14 01:37:45;;;;;;;5.63;4.07;;;14.70;99.90;;;;;;5130934;27;20063;-62
2023/08/14 01:40:21;;;;;;;5.30;4.63;;;14.70;99.90;;;;;;5115667;27;20134;-62
2023/08/14 01:42:50;;;;;;;5.30;4.18;;;14.70;99.90;;;;;;5124223;27;20489;-63
2023/08/14 01:45:22;;;;;;;5.63;4.40;;;14.70;99.90;;;;;;5120362;27;20039;-63
2023/08/14 01:47:49;;;;;;;5.63;4.70;;;14.60;99.90;;;;;;5125791;27;20472;-62
2023/08/14 01:50:16;;;;;;;5.75;4.47;;;14.70;99.90;;;;;;5115687;27;20031;-62
2023/08/14 01:52:41;;;;;;;6.15;4.85;;;14.60;99.90;;;;;;5129999;27;20031;-62
2023/08/14 01:55:07;;;;;;;9.07;5.03;;;14.60;99.90;;;;;;5132894;27;20057;-62
2023/08/14 01:57:33;;;;;;;6.18;4.95;;;14.60;99.90;;;;;;5151907;27;20034;-62
2023/08/14 01:59:59;;;;;;;9.35;4.50;;;14.60;99.90;;;;;;5132905;27;20090;-63
2023/08/14 02:02:25;;;;;;;4.47;4.07;;;14.60;99.90;;;;;;5151682;27;20044;-62
2023/08/14 02:04:51;;;;;;;5.22;4.65;;;14.60;99.90;;;;;;5119602;27;20043;-62
2023/08/14 02:07:17;;;;;;;5.93;3.80;;;14.60;99.90;;;;;;5127494;27;20096;-62
2023/08/14 02:09:42;;;;;;;4.80;4.03;;;14.60;99.90;;;;;;5131489;27;20035;-62
2023/08/14 02:12:09;;;;;;;4.53;4.13;;;14.60;99.90;;;;;;5132896;27;20501;-63
2023/08/14 02:14:34;;;;;;;5.18;3.95;;;14.60;99.90;;;;;;5128071;27;20536;-62
2023/08/14 02:17:00;;;;;;;5.75;4.00;;;14.50;99.90;;;;;;5132957;27;20163;-62
2023/08/14 02:19:26;;;;;;;3.05;2.80;;;14.50;99.90;;;;;;5112258;27;20035;-62
2023/08/14 02:21:51;;;;;;;5.55;2.88;;;14.50;99.90;;;;;;5130881;27;20070;-62
2023/08/14 02:24:17;;;;;;;2.58;2.38;;;14.40;99.90;;;;;;5116861;27;20045;-63
2023/08/14 02:26:42;;;;;;;4.18;2.95;;;14.40;99.90;;;;;;5133852;27;20394;-62
2023/08/14 02:29:09;;;;;;;3.60;3.30;;;14.30;99.90;;;;;;5111368;28;20406;-62
2023/08/14 02:31:34;;;;;;;6.50;3.45;;;14.30;99.90;;;;;;5108956;28;20044;-62
2023/08/14 02:34:01;;;;;;;5.90;3.90;;;14.20;99.90;;;;;;5109023;28;20071;-63
2023/08/14 02:36:28;;;;;;;5.95;3.60;;;14.20;99.90;;;;;;5110942;28;20043;-62
2023/08/14 02:38:54;;;;;;;4.25;3.42;;;14.20;99.90;;;;;;5114037;28;20044;-62
2023/08/14 02:41:20;;;;;;;3.75;3.35;;;14.20;99.90;;;;;;5111489;28;20075;-62
2023/08/14 02:43:46;;;;;;;3.83;3.42;;;14.20;99.90;;;;;;5091619;28;20114;-62
2023/08/14 02:46:11;;;;;;;3.75;3.45;;;14.10;99.90;;;;;;5116036;27;20059;-63
2023/08/14 02:48:37;;;;;;;5.18;3.60;;;14.10;99.90;;;;;;5133027;27;20489;-63
2023/08/14 02:51:03;;;;;;;5.97;4.00;;;14.10;99.90;;;;;;5133086;27;20035;-62
2023/08/14 02:53:28;;;;;;;63.80;48.40;;;14.10;99.90;;;;;;5132934;27;20465;-62
2023/08/14 02:55:54;;;;;;;48.92;35.28;;;14.10;99.90;;;;;;5129332;27;20043;-62
2023/08/14 02:58:20;;;;;;;30.10;23.17;;;14.10;99.90;;;;;;5116166;27;20420;-62
2023/08/14 03:00:46;;;;;;;21.83;16.48;;;14.10;99.90;;;;;;5113728;28;20568;-61
2023/08/14 03:03:12;;;;;;;12.57;9.07;;;14.10;99.90;;;;;;5112344;28;20096;-62
2023/08/14 03:05:39;;;;;;;8.02;5.90;;;14.10;99.90;;;;;;5113470;28;20028;-62
2023/08/14 03:08:05;;;;;;;5.78;5.20;;;14.00;99.90;;;;;;5120176;27;20043;-62
2023/08/14 03:10:30;;;;;;;6.68;5.13;;;14.10;99.90;;;;;;5112054;28;20043;-62
2023/08/14 03:13:00;;;;;;;6.22;4.90;;;14.00;99.90;;;;;;5113495;28;20051;-62
2023/08/14 03:15:26;;;;;;;6.95;4.75;;;14.00;99.90;;;;;;5113380;28;20428;-62
2023/08/14 03:17:52;;;;;;;8.38;5.03;;;14.00;99.90;;;;;;5117115;27;20466;-61
2023/08/14 03:20:18;;;;;;;6.50;5.10;;;14.00;99.90;;;;;;5112065;28;20059;-62
2023/08/14 03:22:43;;;;;;;7.32;5.15;;;13.90;99.90;;;;;;5113146;28;20515;-62
2023/08/14 03:25:09;;;;;;;6.63;5.05;;;13.90;99.90;;;;;;5111878;28;20040;-62
2023/08/14 03:27:35;;;;;;;7.22;5.10;;;13.90;99.90;;;;;;5111701;28;20054;-62
2023/08/14 03:30:00;;;;;;;7.18;5.72;;;13.90;99.90;;;;;;5135997;27;20112;-62
2023/08/14 03:32:26;;;;;;;6.60;5.25;;;13.90;99.90;;;;;;5115093;27;20034;-62
2023/08/14 03:34:51;;;;;;;8.20;5.47;;;13.80;99.90;;;;;;5115280;27;20213;-62
2023/08/14 03:37:17;;;;;;;5.82;4.93;;;13.80;99.90;;;;;;5115583;27;20051;-62
2023/08/14 03:39:43;;;;;;;7.13;5.07;;;13.80;99.90;;;;;;5126102;27;20072;-62
2023/08/14 03:42:09;;;;;;;8.68;5.70;;;13.80;99.90;;;;;;5115473;27;20115;-62
2023/08/14 03:44:34;;;;;;;6.72;5.40;;;13.80;99.90;;;;;;5114924;27;20046;-62
2023/08/14 03:47:00;;;;;;;6.22;5.63;;;13.90;99.90;;;;;;5098062;27;20043;-62
2023/08/14 03:49:26;;;;;;;7.43;5.65;;;13.90;99.90;;;;;;5116110;27;21328;-62
2023/08/14 03:51:51;;;;;;;9.52;6.35;;;13.90;99.90;;;;;;5116921;27;20124;-62
2023/08/14 03:54:17;;;;;;;8.20;4.95;;;13.90;99.90;;;;;;5114934;27;20031;-62
2023/08/14 03:56:42;;;;;;;6.00;5.40;;;13.90;99.90;;;;;;5133147;27;20034;-62
2023/08/14 03:59:08;;;;;;;7.18;5.05;;;13.90;99.90;;;;;;5114051;27;20787;-62
2023/08/14 04:01:36;;;;;;;7.07;5.30;;;13.90;99.90;;;;;;5128795;27;20047;-62
2023/08/14 04:04:02;;;;;;;9.27;5.50;;;13.90;99.90;;;;;;5153919;27;20175;-62
2023/08/14 04:06:28;;;;;;;6.78;5.38;;;13.90;99.90;;;;;;5135429;27;20041;-62
2023/08/14 04:08:53;;;;;;;7.15;5.35;;;13.90;99.90;;;;;;5134846;27;20034;-63
2023/08/14 04:11:19;;;;;;;8.85;6.03;;;13.90;99.90;;;;;;5133169;27;20532;-62
2023/08/14 04:13:45;;;;;;;6.28;5.35;;;13.90;99.90;;;;;;5126699;27;20041;-62
2023/08/14 04:16:11;;;;;;;7.03;5.50;;;13.90;99.90;;;;;;5134988;27;20076;-62
2023/08/14 04:18:36;;;;;;;6.78;5.40;;;13.90;99.90;;;;;;5134534;27;20042;-62
2023/08/14 04:21:03;;;;;;;7.28;5.50;;;13.90;99.90;;;;;;5134565;27;20087;-62
2023/08/14 04:23:30;;;;;;;8.40;5.72;;;13.90;99.90;;;;;;5120197;27;20485;-62
2023/08/14 04:25:56;;;;;;;6.90;5.10;;;13.90;99.90;;;;;;5114319;27;20096;-62
2023/08/14 04:28:21;;;;;;;8.98;5.38;;;13.90;99.90;;;;;;5150244;27;20558;-62
2023/08/14 04:30:47;;;;;;;5.60;4.68;;;13.90;99.90;;;;;;5134306;27;20485;-62
2023/08/14 04:33:13;;;;;;;8.88;5.65;;;13.90;99.90;;;;;;5131924;27;20180;-62
2023/08/14 04:35:39;;;;;;;8.60;5.60;;;14.00;99.90;;;;;;5134533;27;20397;-61
2023/08/14 04:38:04;;;;;;;8.20;5.82;;;14.00;99.90;;;;;;5133836;27;20466;-62
2023/08/14 04:40:30;;;;;;;8.48;6.88;;;14.00;99.90;;;;;;5134473;27;20038;-62
2023/08/14 04:42:56;;;;;;;10.18;6.60;;;14.10;99.90;;;;;;5149176;27;20034;-62
2023/08/14 04:45:21;;;;;;;12.55;6.75;;;14.10;99.90;;;;;;5133982;27;20042;-62
2023/08/14 04:47:47;;;;;;;10.18;6.72;;;14.20;99.90;;;;;;5152798;27;20415;-62
2023/08/14 04:50:13;;;;;;;13.02;7.60;;;14.20;99.90;;;;;;5152823;27;20027;-62
2023/08/14 04:52:39;;;;;;;11.60;7.22;;;14.30;99.90;;;;;;5129916;27;20057;-62
2023/08/14 04:55:06;;;;;;;11.65;7.22;;;14.40;99.90;;;;;;5118353;27;20067;-62
2023/08/14 04:57:31;;;;;;;10.30;7.57;;;14.50;99.90;;;;;;5113466;27;20035;-62
2023/08/14 04:59:57;;;;;;;11.82;7.65;;;14.60;99.90;;;;;;5113392;27;20469;-62
2023/08/14 05:02:23;;;;;;;12.27;7.75;;;14.60;99.90;;;;;;5113568;27;20039;-62
2023/08/14 05:04:49;;;;;;;12.35;7.53;;;14.70;99.90;;;;;;5138348;27;20460;-63
2023/08/14 05:07:14;;;;;;;13.38;7.60;;;14.80;99.90;;;;;;5114449;27;20035;-62
2023/08/14 05:09:40;;;;;;;12.82;7.80;;;14.80;99.90;;;;;;5112407;27;20043;-62
2023/08/14 05:12:06;;;;;;;11.55;7.82;;;14.90;99.90;;;;;;5127307;27;20115;-62
2023/08/14 05:14:31;;;;;;;12.48;8.15;;;15.00;99.90;;;;;;5132831;27;20071;-62
2023/08/14 05:16:57;;;;;;;10.07;7.38;;;15.10;99.90;;;;;;5151709;27;20034;-62
2023/08/14 05:19:23;;;;;;;12.27;8.20;;;15.10;99.90;;;;;;5133767;27;20039;-62
2023/08/14 05:21:49;;;;;;;13.55;8.23;;;15.20;99.90;;;;;;5120706;27;20047;-62
2023/08/14 05:24:15;;;;;;;10.77;7.90;;;15.30;99.90;;;;;;5152049;27;20453;-62
2023/08/14 05:26:41;;;;;;;10.43;7.18;;;15.40;99.90;;;;;;5151642;27;20027;-62
2023/08/14 05:29:07;;;;;;;11.90;7.82;;;15.50;99.90;;;;;;5119577;27;20059;-61
2023/08/14 05:31:32;;;;;;;10.65;7.90;;;15.70;99.90;;;;;;5134722;27;20092;-62
2023/08/14 05:33:58;;;;;;;10.13;7.60;;;15.70;99.90;;;;;;5113203;27;20118;-62
2023/08/14 05:36:24;;;;;;;11.30;7.38;;;15.80;99.90;;;;;;5140783;27;20118;-61
2023/08/14 05:38:49;;;;;;;11.27;7.93;;;15.80;99.90;;;;;;5095984;27;20085;-61
2023/08/14 05:41:16;;;;;;;11.45;8.38;;;15.90;99.90;;;;;;5113105;27;20533;-61
2023/08/14 05:43:41;;;;;;;12.20;7.60;;;16.00;99.90;;;;;;5116510;27;20150;-62
2023/08/14 05:46:07;;;;;;;11.73;7.65;;;16.00;99.90;;;;;;5130364;27;20050;-62
2023/08/14 05:48:33;;;;;;;13.82;7.40;;;16.00;99.90;;;;;;5131895;27;20118;-62
2023/08/14 05:50:58;;;;;;;11.95;7.60;;;16.10;99.90;;;;;;5115947;27;20039;-61
2023/08/14 05:53:24;;;;;;;10.43;7.28;;;16.10;99.90;;;;;;5136640;27;20401;-62
2023/08/14 05:55:50;;;;;;;11.38;8.10;;;16.10;99.90;;;;;;5142767;27;20032;-61
2023/08/14 05:58:15;;;;;;;10.48;8.07;;;16.10;99.90;;;;;;5135547;27;20034;-62
2023/08/14 06:00:41;;;;;;;10.20;7.43;;;16.20;99.90;;;;;;5143829;27;20374;-62
2023/08/14 06:03:08;;;;;;;11.75;7.53;;;16.20;99.90;;;;;;5124309;27;20082;-62
2023/08/14 06:05:35;;;;;;;11.57;7.75;;;16.20;99.90;;;;;;5132785;27;20035;-61
2023/08/14 06:08:01;;;;;;;11.05;7.78;;;16.30;99.90;;;;;;5151156;27;20405;-62
2023/08/14 06:10:27;;;;;;;11.68;7.63;;;16.40;99.90;;;;;;5117230;27;20031;-62
2023/08/14 06:12:53;;;;;;;13.13;8.27;;;16.40;99.90;;;;;;5125388;27;20046;-62
2023/08/14 06:15:19;;;;;;;13.93;8.52;;;16.50;99.90;;;;;;5140827;27;20026;-62
2023/08/14 06:17:46;;;;;;;12.00;8.27;;;16.40;99.90;;;;;;5124598;27;20046;-62
2023/08/14 06:20:12;;;;;;;13.50;8.57;;;16.40;99.90;;;;;;5132850;27;20171;-63
2023/08/14 06:22:43;;;;;;;11.95;8.85;;;16.40;99.90;;;;;;5118228;27;20123;-62
2023/08/14 06:25:11;;;;;;;11.17;7.83;;;16.40;99.90;;;;;;5123374;27;20579;-61
2023/08/14 06:27:37;;;;;;;12.63;8.35;;;16.40;99.90;;;;;;5135943;27;20291;-63
2023/08/14 06:30:03;;;;;;;12.05;7.45;;;16.50;99.90;;;;;;5124732;27;20047;-62
2023/08/14 06:32:29;;;;;;;16.58;8.23;;;16.50;99.90;;;;;;5136695;27;20043;-62
2023/08/14 06:34:54;;;;;;;11.25;7.75;;;16.50;99.90;;;;;;5125660;27;20112;-62
2023/08/14 06:37:20;;;;;;;12.27;8.38;;;16.60;99.90;;;;;;5137092;27;20046;-62
2023/08/14 06:39:45;;;;;;;12.13;7.78;;;16.60;99.90;;;;;;5116495;27;20039;-62
2023/08/14 06:42:11;;;;;;;12.75;7.90;;;16.60;99.90;;;;;;5118693;27;20046;-62
2023/08/14 06:44:37;;;;;;;14.55;8.63;;;16.60;99.90;;;;;;5118262;27;20039;-61
2023/08/14 06:47:02;;;;;;;10.55;8.27;;;16.60;99.90;;;;;;5136096;27;20385;-61
2023/08/14 06:49:28;;;;;;;11.27;7.78;;;16.60;99.90;;;;;;5123481;27;20045;-62
2023/08/14 06:51:54;;;;;;;10.82;8.35;;;16.70;99.90;;;;;;5121629;27;20489;-63
2023/08/14 06:54:20;;;;;;;16.50;8.75;;;16.70;99.90;;;;;;5116187;27;20127;-61
2023/08/14 06:56:46;;;;;;;11.35;8.23;;;16.80;99.90;;;;;;5134396;27;20035;-61
2023/08/14 06:59:12;;;;;;;12.07;8.13;;;16.90;99.90;;;;;;5134530;27;20034;-62
2023/08/14 07:01:38;;;;;;;11.60;7.93;;;16.90;99.90;;;;;;5147348;27;20068;-62
2023/08/14 07:04:04;;;;;;;10.20;8.20;;;17.00;99.90;;;;;;5150695;27;20042;-61
2023/08/14 07:06:29;;;;;;;10.23;7.97;;;17.10;99.90;;;;;;5124773;27;20061;-62
2023/08/14 07:08:55;;;;;;;15.85;7.90;;;17.20;99.90;;;;;;5143844;27;20043;-62
2023/08/14 07:11:21;;;;;;;10.98;8.02;;;17.30;99.90;;;;;;5123434;27;20051;-61
2023/08/14 07:13:46;;;;;;;13.70;8.85;;;17.40;99.90;;;;;;5144254;27;20122;-62
2023/08/14 07:16:12;;;;;;;10.07;7.68;;;17.50;99.90;;;;;;5126067;27;20061;-62
2023/08/14 07:18:38;;;;;;;14.48;8.27;;;17.60;99.90;;;;;;5143370;27;20078;-62
2023/08/14 07:21:03;;;;;;;14.40;8.15;;;17.80;99.90;;;;;;5124957;27;20104;-62
2023/08/14 07:23:29;;;;;;;13.45;7.90;;;18.00;99.90;;;;;;5126369;27;20052;-61
2023/08/14 07:25:59;;;;;;;11.65;7.78;;;18.10;99.90;;;;;;5147332;27;20162;-61
2023/08/14 07:28:25;;;;;;;10.38;6.25;;;18.30;99.90;;;;;;5129808;27;20059;-63
2023/08/14 07:30:51;;;;;;;12.00;7.63;;;18.50;99.90;;;;;;5150066;27;20049;-60
2023/08/14 07:33:17;;;;;;;11.23;6.70;;;18.70;99.90;;;;;;5122624;27;20035;-61
2023/08/14 07:35:43;;;;;;;11.18;6.85;;;18.80;99.90;;;;;;5136073;27;20041;-62
2023/08/14 07:38:08;;;;;;;12.13;6.25;;;18.80;99.90;;;;;;5136015;27;20038;-62
2023/08/14 07:40:34;;;;;;;8.38;5.53;;;18.80;99.90;;;;;;5136237;27;20031;-61
2023/08/14 07:43:00;;;;;;;10.25;5.70;;;18.90;99.90;;;;;;5115162;27;20501;-62
2023/08/14 07:45:25;;;;;;;8.20;5.63;;;18.90;99.90;;;;;;5135430;27;20042;-61
2023/08/14 07:47:51;;;;;;;11.93;5.93;;;19.00;99.90;;;;;;5141863;27;20516;-61
2023/08/14 07:50:17;;;;;;;8.13;5.28;;;19.00;99.90;;;;;;5139562;27;20023;-61
2023/08/14 07:52:42;;;;;;;8.48;5.53;;;19.10;99.90;;;;;;5133262;27;20122;-60
2023/08/14 07:55:08;;;;;;;13.00;6.20;;;19.20;99.90;;;;;;5118491;27;20716;-60
2023/08/14 07:57:34;;;;;;;9.18;5.30;;;19.10;99.90;;;;;;5135557;27;20031;-61
2023/08/14 08:00:00;;;;;;;8.20;5.15;;;19.20;99.90;;;;;;5133018;27;20035;-61
2023/08/14 08:02:26;;;;;;;7.82;5.50;;;19.20;99.90;;;;;;5132866;27;20066;-61
2023/08/14 08:04:51;;;;;;;10.90;5.10;;;19.30;99.90;;;;;;5134843;27;20413;-61
2023/08/14 08:07:17;;;;;;;8.10;4.95;;;19.30;99.90;;;;;;5145724;27;20043;-61
2023/08/14 08:09:42;;;;;;;9.68;4.93;;;19.50;99.90;;;;;;5115485;27;20027;-62
2023/08/14 08:12:08;;;;;;;6.07;4.40;;;19.70;99.90;;;;;;5114627;27;20042;-62
2023/08/14 08:14:35;;;;;;;7.95;4.72;;;19.80;99.90;;;;;;5132899;27;20043;-62
2023/08/14 08:17:02;;;;;;;9.27;4.40;;;19.90;99.90;;;;;;5150457;27;20046;-62
2023/08/14 08:19:28;;;;;;;9.25;4.63;;;20.10;99.90;;;;;;5134683;27;20128;-62
2023/08/14 08:21:53;;;;;;;11.10;5.00;;;20.20;99.90;;;;;;5114141;27;20126;-61
2023/08/14 08:24:19;;;;;;;7.30;4.28;;;20.50;99.90;;;;;;5132574;27;20118;-61
2023/08/14 08:26:45;;;;;;;6.30;3.72;;;20.70;99.90;;;;;;5117069;27;20035;-62
2023/08/14 08:29:11;;;;;;;7.85;3.78;;;21.00;99.90;;;;;;5121298;27;20043;-62
2023/08/14 08:31:37;;;;;;;8.32;3.45;;;21.40;99.90;;;;;;5113501;27;20077;-61
2023/08/14 08:34:03;;;;;;;5.60;3.20;;;21.70;99.90;;;;;;5136038;27;20359;-62
2023/08/14 08:36:28;;;;;;;7.50;3.40;;;21.70;99.90;;;;;;5152212;27;20031;-62
2023/08/14 08:38:54;;;;;;;6.97;3.38;;;21.70;99.90;;;;;;5116900;27;20039;-63
2023/08/14 08:41:31;;;;;;;8.75;3.60;;;21.60;99.90;;;;;;5145362;27;20163;-63
2023/08/14 08:44:22;;;;;;;6.72;2.92;;;21.50;99.90;;;;;;5132375;27;20027;-62
2023/08/14 08:46:58;;;;;;;9.25;3.53;;;21.30;99.90;;;;;;5117254;27;20460;-62
2023/08/14 08:49:24;;;;;;;8.50;3.60;;;21.20;99.90;;;;;;5145294;27;20422;-62
2023/08/14 08:51:52;;;;;;;6.63;3.15;;;21.10;99.90;;;;;;5120560;27;20062;-62
2023/08/14 08:54:18;;;;;;;5.80;3.58;;;21.10;99.90;;;;;;5149906;27;20047;-62
2023/08/14 08:56:44;;;;;;;8.88;3.92;;;21.10;99.90;;;;;;5147672;27;20043;-62
2023/08/14 08:59:11;;;;;;;10.65;3.95;;;21.20;99.90;;;;;;5145057;27;20485;-63
2023/08/14 09:01:38;;;;;;;6.05;3.45;;;21.30;99.90;;;;;;5144456;27;20035;-62
2023/08/14 09:04:04;;;;;;;6.57;3.42;;;21.40;99.90;;;;;;5133991;27;21211;-63
2023/08/14 09:06:30;;;;;;;9.20;3.78;;;21.60;99.90;;;;;;5125466;27;20048;-62
2023/08/14 09:08:56;;;;;;;9.63;3.90;;;21.70;99.90;;;;;;5120587;27;20034;-63
2023/08/14 09:11:22;;;;;;;7.72;3.40;;;21.80;99.90;;;;;;5142896;27;20102;-63
2023/08/14 09:13:48;;;;;;;6.97;3.35;;;22.00;99.90;;;;;;5113424;27;20127;-63
2023/08/14 09:16:15;;;;;;;8.77;3.50;;;22.10;99.90;;;;;;5124836;27;20053;-63
2023/08/14 09:18:43;;;;;;;6.75;2.78;;;22.40;99.90;;;;;;5113745;27;20556;-62
2023/08/14 09:21:09;;;;;;;6.63;2.67;;;22.60;99.90;;;;;;5133522;27;20035;-62
2023/08/14 09:23:35;;;;;;;7.53;3.40;;;22.80;99.90;;;;;;5150963;27;20162;-62
2023/08/14 09:26:02;;;;;;;7.38;3.05;;;23.00;99.90;;;;;;5148731;27;20042;-63
2023/08/14 09:28:28;;;;;;;4.80;2.40;;;23.10;99.90;;;;;;5119824;27;20048;-62
2023/08/14 09:31:05;;;;;;;5.15;2.22;;;23.20;99.90;;;;;;5125948;27;20041;-63
2023/08/14 09:33:32;;;;;;;6.28;2.55;;;23.50;99.90;;;;;;5118708;27;20564;-63
2023/08/14 09:35:57;;;;;;;6.43;2.25;;;23.70;99.90;;;;;;5113192;27;20034;-61
2023/08/14 09:38:23;;;;;;;5.53;2.17;;;23.80;99.90;;;;;;5138703;27;20130;-64
2023/08/14 09:40:54;;;;;;;5.97;2.00;;;24.00;99.90;;;;;;5130884;27;20042;-62
2023/08/14 09:43:20;;;;;;;4.57;1.90;;;24.20;99.90;;;;;;5123280;27;20055;-62
2023/08/14 09:45:46;;;;;;;5.40;2.00;;;24.40;99.90;;;;;;5106359;27;20134;-63
2023/08/14 09:48:12;;;;;;;5.20;1.90;;;24.60;99.90;;;;;;5120602;27;20066;-63
2023/08/14 09:50:38;;;;;;;7.30;2.20;;;24.60;99.90;;;;;;5131316;27;20065;-62
2023/08/14 09:53:03;;;;;;;5.35;2.00;;;24.80;99.90;;;;;;5136065;27;20066;-63
2023/08/14 09:55:29;;;;;;;5.28;1.98;;;24.90;99.90;;;;;;5131271;27;20051;-63
2023/08/14 09:57:58;;;;;;;4.78;1.70;;;25.00;99.90;;;;;;5131156;27;20096;-62
2023/08/14 10:00:31;;;;;;;5.18;1.98;;;25.00;99.90;;;;;;5120654;28;20043;-61
2023/08/14 10:02:58;;;;;;;4.95;1.77;;;25.00;99.90;;;;;;5124500;27;20035;-63
2023/08/14 10:05:25;;;;;;;6.57;2.00;;;25.20;99.90;;;;;;5118104;27;20071;-62
2023/08/14 10:07:53;;;;;;;3.65;1.83;;;25.50;99.90;;;;;;5116786;27;20042;-62
2023/08/14 10:10:21;;;;;;;4.03;1.60;;;25.70;99.90;;;;;;5149633;27;20041;-63
2023/08/14 10:12:57;;;;;;;5.20;1.75;;;25.80;99.90;;;;;;5146630;27;20054;-63
2023/08/14 10:15:31;;;;;;;6.07;1.60;;;26.00;99.90;;;;;;5133233;27;20103;-63
2023/08/14 10:18:01;;;;;;;4.47;1.65;;;25.90;99.90;;;;;;5112479;27;20405;-63
2023/08/14 10:20:31;;;;;;;5.00;1.50;;;25.90;99.90;;;;;;5116208;28;20035;-63
2023/08/14 10:22:57;;;;;;;4.32;1.70;;;25.90;99.90;;;;;;5115869;27;20125;-63
2023/08/14 10:25:23;;;;;;;4.63;1.40;;;25.90;99.90;;;;;;5145471;27;20062;-63
2023/08/14 10:27:51;;;;;;;6.15;1.60;;;26.00;99.90;;;;;;5131367;27;20031;-63
2023/08/14 10:30:19;;;;;;;3.53;1.35;;;26.00;99.90;;;;;;5131519;27;20501;-63
2023/08/14 10:32:47;;;;;;;6.47;1.70;;;26.30;99.90;;;;;;5121432;27;20043;-63
2023/08/14 10:35:12;;;;;;;3.72;1.55;;;26.50;99.90;;;;;;5144933;27;20262;-63
2023/08/14 10:37:49;;;;;;;4.90;1.65;;;26.60;99.90;;;;;;5131676;27;20026;-63
2023/08/14 10:40:23;;;;;;;5.20;1.42;;;26.60;99.90;;;;;;5131253;27;20493;-63
2023/08/14 10:42:54;;;;;;;3.03;1.23;;;26.60;99.90;;;;;;5138673;27;20043;-63
2023/08/14 10:45:28;;;;;;;6.00;1.83;;;26.80;99.90;;;;;;5123956;27;20113;-63
2023/08/14 10:48:00;;;;;;;4.35;1.27;;;27.00;99.90;;;;;;5136398;27;20528;-64
2023/08/14 10:50:28;;;;;;;4.25;1.20;;;27.10;99.90;;;;;;5120779;27;20061;-63
2023/08/14 10:52:55;;;;;;;6.22;1.30;;;27.20;99.90;;;;;;5110252;27;20516;-63
2023/08/14 10:55:40;;;;;;;6.00;1.58;;;27.40;99.10;;;;;;5132747;27;20118;-63
2023/08/14 10:58:28;;;;;;;2.60;1.00;;;27.50;96.90;;;;;;5120412;28;20135;-63
2023/08/14 11:00:55;;;;;;;3.58;1.20;;;27.40;96.20;;;;;;5124049;27;20125;-63
2023/08/14 11:03:21;;;;;;;5.10;1.27;;;27.10;94.60;;;;;;5118708;27;20047;-63
2023/08/14 11:05:47;;;;;;;4.72;1.42;;;26.90;94.00;;;;;;5146845;27;20129;-63
2023/08/14 11:08:14;;;;;;;5.13;1.55;;;26.70;94.30;;;;;;5131887;27;20118;-64
2023/08/14 11:10:41;;;;;;;3.80;1.55;;;26.80;95.30;;;;;;5123985;27;20031;-63
2023/08/14 11:13:08;;;;;;;4.45;1.70;;;26.80;95.90;;;;;;5119609;27;20042;-62
2023/08/14 11:15:38;;;;;;;4.00;1.60;;;26.80;94.80;;;;;;5123729;27;20493;-62
2023/08/14 11:18:06;;;;;;;5.63;1.55;;;26.90;95.80;;;;;;5131131;27;20133;-62
2023/08/14 11:20:32;;;;;;;4.30;1.60;;;26.80;96.40;;;;;;5136037;27;20389;-63
2023/08/14 11:23:01;;;;;;;5.20;1.50;;;26.60;95.10;;;;;;5135287;27;20053;-63
2023/08/14 11:25:27;;;;;;;3.65;1.40;;;26.60;96.10;;;;;;5136720;27;20107;-63
2023/08/14 11:27:54;;;;;;;5.50;1.63;;;26.70;96.10;;;;;;5116831;27;20130;-63
2023/08/14 11:30:22;;;;;;;4.65;1.60;;;26.80;95.30;;;;;;5131320;27;20038;-63
2023/08/14 11:32:49;;;;;;;4.97;1.80;;;26.80;95.60;;;;;;5135519;27;20046;-63
2023/08/14 11:35:16;;;;;;;5.18;1.70;;;26.80;95.80;;;;;;5140157;27;20066;-63
2023/08/14 11:37:42;;;;;;;4.45;1.92;;;26.70;95.30;;;;;;5134612;27;20432;-62
2023/08/14 11:40:10;;;;;;;4.43;1.90;;;26.40;95.90;;;;;;5124176;27;20038;-62
2023/08/14 11:42:38;;;;;;;4.35;1.58;;;26.10;95.60;;;;;;5135439;27;20111;-63
2023/08/14 11:45:05;;;;;;;4.90;1.67;;;26.00;96.70;;;;;;5123920;27;20039;-63
2023/08/14 11:47:32;;;;;;;4.35;1.67;;;26.00;97.00;;;;;;5117440;27;20042;-63
2023/08/14 11:49:58;;;;;;;4.97;1.60;;;25.90;96.70;;;;;;5120245;27;20043;-63
2023/08/14 11:52:27;;;;;;;4.65;1.60;;;25.80;96.70;;;;;;5118993;27;20046;-62
2023/08/14 11:54:55;;;;;;;5.38;1.98;;;25.60;96.90;;;;;;5133405;27;20114;-62
2023/08/14 11:57:26;;;;;;;3.60;1.60;;;25.80;97.40;;;;;;5133824;27;20054;-64
2023/08/14 11:59:54;;;;;;;4.38;1.80;;;25.60;96.10;;;;;;5114916;27;20031;-63
2023/08/14 12:02:20;;;;;;;3.70;1.52;;;25.30;96.30;;;;;;5117239;27;20091;-63
2023/08/14 12:04:51;;;;;;;3.78;1.70;;;25.30;97.30;;;;;;5117634;27;20038;-62
2023/08/14 12:07:20;;;;;;;6.57;2.22;;;25.20;96.30;;;;;;5136447;27;20023;-63
2023/08/14 12:09:47;;;;;;;6.22;1.90;;;25.10;96.70;;;;;;5114651;27;20398;-63
2023/08/14 12:12:13;;;;;;;4.18;1.60;;;25.00;96.80;;;;;;5135224;27;20064;-62
2023/08/14 12:14:43;;;;;;;4.65;1.67;;;24.80;97.10;;;;;;5114441;27;20129;-63
2023/08/14 12:17:10;;;;;;;4.47;1.60;;;24.80;97.70;;;;;;5117503;27;20485;-64
2023/08/14 12:19:40;;;;;;;4.88;1.80;;;24.80;98.00;;;;;;5121825;27;20392;-63
2023/08/14 12:22:06;;;;;;;5.82;1.95;;;25.00;98.40;;;;;;5127071;27;20504;-63
2023/08/14 12:24:39;;;;;;;5.78;1.90;;;25.30;98.80;;;;;;5123371;27;20046;-65
2023/08/14 12:27:26;;;;;;;4.97;1.65;;;25.50;97.40;;;;;;5115354;27;20179;-65
2023/08/14 12:29:53;;;;;;;7.20;1.85;;;25.80;98.00;;;;;;5129123;27;20501;-65
2023/08/14 12:32:20;;;;;;;6.07;1.90;;;25.90;97.50;;;;;;5116873;27;20043;-65
2023/08/14 12:34:46;;;;;;;3.55;1.60;;;25.80;97.10;;;;;;5106902;27;20050;-64
2023/08/14 12:37:14;;;;;;;3.97;1.35;;;25.60;97.00;;;;;;5114395;27;20045;-64
2023/08/14 12:39:41;;;;;;;4.90;1.55;;;25.40;97.10;;;;;;5146808;27;20133;-63
2023/08/14 12:42:07;;;;;;;4.88;1.73;;;25.30;97.60;;;;;;5114152;27;20039;-64